Time;durP1;ratioP1;P1;durP2;ratioP2;P2;SDS_P1;SDS_P2;PMS_P1;PMS_P2;Temp;Humidity;BMP_temperature;BMP_pressure;BME280_temperature;BME280_humidity;BME280_pressure;Samples;Min_cycle;Max_cycle;Signal;HPM_P1;HPM_P2
2023/05/12 00:00:05;;;;;;;1999.90;999.90;;;;;;;;;;6333156;22;20091;-80
2023/05/12 00:02:31;;;;;;;1999.90;999.90;;;;;;;;;;6333120;22;20015;-80
2023/05/12 00:04:57;;;;;;;1999.90;999.90;;;;;;;;;;6330972;22;20015;-80
2023/05/12 00:07:23;;;;;;;1999.90;999.90;;;;;;;;;;6333109;22;20060;-81
2023/05/12 00:09:49;;;;;;;1999.90;999.90;;;;;;;;;;6332492;22;20445;-80
2023/05/12 00:12:15;;;;;;;1999.90;999.90;;;;;;;;;;6278618;22;20087;-80
2023/05/12 00:14:41;;;;;;;1999.90;999.90;;;;;;;;;;6332657;22;20045;-80
2023/05/12 00:17:07;;;;;;;1999.90;999.90;;;;;;;;;;6332211;22;20445;-80
2023/05/12 00:19:34;;;;;;;1999.90;999.90;;;;;;;;;;6332809;22;20054;-80
2023/05/12 00:22:00;;;;;;;1999.90;999.90;;;;;;;;;;6331922;22;20011;-80
2023/05/12 00:24:26;;;;;;;1999.90;999.90;;;;;;;;;;6332617;22;20015;-80
2023/05/12 00:26:53;;;;;;;1999.90;999.90;;;;;;;;;;6332075;22;20021;-80
2023/05/12 00:29:19;;;;;;;1999.90;999.90;;;;;;;;;;6333346;22;20018;-80
2023/05/12 00:31:45;;;;;;;1999.90;999.90;;;;;;;;;;6333425;22;20010;-81
2023/05/12 00:34:11;;;;;;;1999.90;999.90;;;;;;;;;;6304159;22;20025;-80
2023/05/12 00:36:37;;;;;;;1999.90;999.90;;;;;;;;;;6332024;22;20021;-80
2023/05/12 00:39:04;;;;;;;1999.90;999.90;;;;;;;;;;6303693;22;20508;-80
2023/05/12 00:41:29;;;;;;;1999.90;999.90;;;;;;;;;;6304669;22;20023;-81
2023/05/12 00:43:56;;;;;;;1999.90;999.90;;;;;;;;;;6331993;22;20022;-80
2023/05/12 00:46:22;;;;;;;1999.90;999.90;;;;;;;;;;6304852;22;20023;-80
2023/05/12 00:48:48;;;;;;;1999.90;999.90;;;;;;;;;;6304822;22;20072;-80
2023/05/12 00:51:15;;;;;;;1999.90;999.90;;;;;;;;;;6331911;22;20079;-80
2023/05/12 00:53:42;;;;;;;1999.90;999.90;;;;;;;;;;6304019;22;20091;-81
2023/05/12 00:56:08;;;;;;;1999.90;999.90;;;;;;;;;;6331970;22;20015;-80
2023/05/12 00:58:34;;;;;;;1999.90;999.90;;;;;;;;;;6304339;22;20017;-80
2023/05/12 01:01:00;;;;;;;1999.90;999.90;;;;;;;;;;6332288;22;20087;-80
2023/05/12 01:03:26;;;;;;;1999.90;999.90;;;;;;;;;;6279215;22;20054;-80
2023/05/12 01:05:57;;;;;;;1999.90;999.90;;;;;;;;;;6332119;22;20018;-80
2023/05/12 01:08:24;;;;;;;1999.90;999.90;;;;;;;;;;6303801;22;20329;-80
2023/05/12 01:10:50;;;;;;;1999.90;999.90;;;;;;;;;;6332646;22;20018;-81
2023/05/12 01:13:16;;;;;;;1999.90;999.90;;;;;;;;;;6303976;22;20019;-80
2023/05/12 01:15:47;;;;;;;1999.90;999.90;;;;;;;;;;6332578;22;20017;-80
2023/05/12 01:18:15;;;;;;;1999.90;999.90;;;;;;;;;;6331735;22;20053;-81
2023/05/12 01:20:43;;;;;;;1999.90;999.90;;;;;;;;;;6331816;22;20015;-81
2023/05/12 01:23:09;;;;;;;1999.90;999.90;;;;;;;;;;6331056;22;20014;-81
2023/05/12 01:25:36;;;;;;;1999.90;999.90;;;;;;;;;;6331849;22;20011;-80
2023/05/12 01:28:03;;;;;;;1999.90;999.90;;;;;;;;;;6331849;22;20482;-81
2023/05/12 01:30:31;;;;;;;1999.90;999.90;;;;;;;;;;6332521;22;20019;-81
2023/05/12 01:32:57;;;;;;;1999.90;999.90;;;;;;;;;;6331901;22;20011;-81
2023/05/12 01:35:23;;;;;;;1999.90;999.90;;;;;;;;;;6303229;22;20010;-81
2023/05/12 01:37:50;;;;;;;1999.90;999.90;;;;;;;;;;6304920;22;20046;-81
2023/05/12 01:40:16;;;;;;;1999.90;999.90;;;;;;;;;;6331713;22;20011;-81
2023/05/12 01:42:43;;;;;;;1999.90;999.90;;;;;;;;;;6332534;22;20038;-82
2023/05/12 01:45:09;;;;;;;1999.90;999.90;;;;;;;;;;6331768;22;20336;-81
2023/05/12 01:47:35;;;;;;;1999.90;999.90;;;;;;;;;;6331732;22;20031;-81
2023/05/12 01:50:02;;;;;;;1999.90;999.90;;;;;;;;;;6330903;22;20015;-81
2023/05/12 01:52:28;;;;;;;1999.90;999.90;;;;;;;;;;6334101;22;20015;-81
2023/05/12 01:54:54;;;;;;;1999.90;999.90;;;;;;;;;;6334040;22;20022;-81
2023/05/12 01:57:20;;;;;;;1999.90;999.90;;;;;;;;;;6334094;22;20015;-80
2023/05/12 01:59:46;;;;;;;1999.90;999.90;;;;;;;;;;6334576;22;20511;-81
2023/05/12 02:02:12;;;;;;;1999.90;999.90;;;;;;;;;;6334083;22;20028;-81
2023/05/12 02:04:38;;;;;;;1999.90;999.90;;;;;;;;;;6305957;22;20014;-81
2023/05/12 02:07:04;;;;;;;1999.90;999.90;;;;;;;;;;6305791;22;20096;-81
2023/05/12 02:09:30;;;;;;;1999.90;999.90;;;;;;;;;;6333727;22;20018;-81
2023/05/12 02:11:56;;;;;;;1999.90;999.90;;;;;;;;;;6333473;22;20007;-80
2023/05/12 02:14:22;;;;;;;1999.90;999.90;;;;;;;;;;6334142;22;20062;-81
2023/05/12 02:16:51;;;;;;;1999.90;999.90;;;;;;;;;;6306325;22;20007;-80
2023/05/12 02:19:17;;;;;;;1999.90;999.90;;;;;;;;;;6332435;22;20353;-81
2023/05/12 02:21:45;;;;;;;1999.90;999.90;;;;;;;;;;6306716;22;20018;-81
2023/05/12 02:24:11;;;;;;;1999.90;999.90;;;;;;;;;;6333696;22;20131;-81
2023/05/12 02:26:37;;;;;;;1999.90;999.90;;;;;;;;;;6306259;22;20025;-80
2023/05/12 02:29:03;;;;;;;1999.90;999.90;;;;;;;;;;6332645;22;20018;-80
2023/05/12 02:31:29;;;;;;;1999.90;999.90;;;;;;;;;;6334597;22;20078;-80
2023/05/12 02:33:55;;;;;;;1999.90;999.90;;;;;;;;;;6332734;22;20022;-80
2023/05/12 02:36:21;;;;;;;1999.90;999.90;;;;;;;;;;6333993;22;20057;-81
2023/05/12 02:38:47;;;;;;;1999.90;999.90;;;;;;;;;;6333635;22;20014;-80
2023/05/12 02:41:13;;;;;;;1999.90;999.90;;;;;;;;;;6333375;22;20015;-80
2023/05/12 02:43:39;;;;;;;1999.90;999.90;;;;;;;;;;6333693;22;20438;-81
2023/05/12 02:46:05;;;;;;;1999.90;999.90;;;;;;;;;;6305665;22;20014;-79
2023/05/12 02:48:31;;;;;;;1999.90;999.90;;;;;;;;;;6305496;22;20027;-80
2023/05/12 02:50:57;;;;;;;1999.90;999.90;;;;;;;;;;6304657;22;20022;-80
2023/05/12 02:53:23;;;;;;;1999.90;999.90;;;;;;;;;;6306112;22;20339;-80
2023/05/12 02:55:49;;;;;;;1999.90;999.90;;;;;;;;;;6333441;22;20019;-80
2023/05/12 02:58:15;;;;;;;1999.90;999.90;;;;;;;;;;6332899;22;20042;-80
2023/05/12 03:00:41;;;;;;;1999.90;999.90;;;;;;;;;;6332601;22;20406;-80
2023/05/12 03:03:07;;;;;;;1999.90;999.90;;;;;;;;;;6332221;22;20136;-80
2023/05/12 03:05:33;;;;;;;1999.90;999.90;;;;;;;;;;6333627;22;20135;-81
2023/05/12 03:07:59;;;;;;;1999.90;999.90;;;;;;;;;;6333324;22;20011;-81
2023/05/12 03:10:25;;;;;;;1999.90;999.90;;;;;;;;;;6305911;22;20467;-81
2023/05/12 03:12:51;;;;;;;1999.90;999.90;;;;;;;;;;6305609;22;20048;-80
2023/05/12 03:15:18;;;;;;;1999.90;999.90;;;;;;;;;;6332871;22;20076;-80
2023/05/12 03:17:44;;;;;;;1999.90;999.90;;;;;;;;;;6332901;22;20091;-80
2023/05/12 03:20:11;;;;;;;1999.90;999.90;;;;;;;;;;6332220;22;20015;-81
2023/05/12 03:22:37;;;;;;;1999.90;999.90;;;;;;;;;;6332655;22;20018;-81
2023/05/12 03:25:04;;;;;;;1999.90;999.90;;;;;;;;;;6332465;22;20137;-81
2023/05/12 03:27:32;;;;;;;1999.90;999.90;;;;;;;;;;6333472;22;20033;-81
2023/05/12 03:30:03;;;;;;;1999.90;999.90;;;;;;;;;;6332833;22;20024;-81
2023/05/12 03:32:30;;;;;;;1999.90;999.90;;;;;;;;;;6333176;22;20011;-80
2023/05/12 03:34:56;;;;;;;1999.90;999.90;;;;;;;;;;6332540;22;20007;-81
2023/05/12 03:37:22;;;;;;;1999.90;999.90;;;;;;;;;;6305730;22;20049;-81
2023/05/12 03:39:48;;;;;;;1999.90;999.90;;;;;;;;;;6305832;22;20011;-81
2023/05/12 03:42:14;;;;;;;1999.90;999.90;;;;;;;;;;6332163;22;20063;-80
2023/05/12 03:44:40;;;;;;;1999.90;999.90;;;;;;;;;;6305880;22;20010;-81
2023/05/12 03:47:06;;;;;;;1999.90;999.90;;;;;;;;;;6332043;22;20022;-81
2023/05/12 03:49:32;;;;;;;1999.90;999.90;;;;;;;;;;6332993;22;20011;-81
2023/05/12 03:51:58;;;;;;;1999.90;999.90;;;;;;;;;;6332303;22;20498;-81
2023/05/12 03:54:24;;;;;;;1999.90;999.90;;;;;;;;;;6332662;22;20011;-81
2023/05/12 03:56:52;;;;;;;1999.90;999.90;;;;;;;;;;6332874;22;20097;-81
2023/05/12 03:59:18;;;;;;;1999.90;999.90;;;;;;;;;;6332833;22;20011;-81
2023/05/12 04:01:44;;;;;;;1999.90;999.90;;;;;;;;;;6332421;22;20355;-81
2023/05/12 04:04:10;;;;;;;1999.90;999.90;;;;;;;;;;6331689;22;20014;-81
2023/05/12 04:06:36;;;;;;;1999.90;999.90;;;;;;;;;;6305627;22;20083;-81
2023/05/12 04:09:02;;;;;;;1999.90;999.90;;;;;;;;;;6332609;22;20701;-81
2023/05/12 04:11:28;;;;;;;1999.90;999.90;;;;;;;;;;6333113;22;20042;-80
2023/05/12 04:13:54;;;;;;;1999.90;999.90;;;;;;;;;;6331364;22;20013;-80
2023/05/12 04:16:21;;;;;;;1999.90;999.90;;;;;;;;;;6331725;22;20095;-81
2023/05/12 04:18:48;;;;;;;1999.90;999.90;;;;;;;;;;6332598;22;20083;-81
2023/05/12 04:21:14;;;;;;;1999.90;999.90;;;;;;;;;;6332245;22;20018;-81
2023/05/12 04:23:40;;;;;;;1999.90;999.90;;;;;;;;;;6332516;22;20017;-80
2023/05/12 04:26:06;;;;;;;1999.90;999.90;;;;;;;;;;6332291;22;20007;-83
2023/05/12 04:28:32;;;;;;;1999.90;999.90;;;;;;;;;;6332880;22;20064;-82
2023/05/12 04:31:02;;;;;;;1999.90;999.90;;;;;;;;;;6304319;22;20019;-81
2023/05/12 04:33:28;;;;;;;1999.90;999.90;;;;;;;;;;6332909;22;20043;-81
2023/05/12 04:35:57;;;;;;;1999.90;999.90;;;;;;;;;;6332059;22;20018;-81
2023/05/12 04:38:23;;;;;;;1999.90;999.90;;;;;;;;;;6333015;22;20023;-81
2023/05/12 04:40:49;;;;;;;1999.90;999.90;;;;;;;;;;6332917;22;20109;-81
2023/05/12 04:43:15;;;;;;;1999.90;999.90;;;;;;;;;;6303786;22;20042;-81
2023/05/12 04:45:42;;;;;;;1999.90;999.90;;;;;;;;;;6331781;22;20328;-81
2023/05/12 04:48:08;;;;;;;1999.90;999.90;;;;;;;;;;6331286;22;20010;-81
2023/05/12 04:50:35;;;;;;;1999.90;999.90;;;;;;;;;;6332614;22;20018;-81
2023/05/12 04:53:00;;;;;;;1999.90;999.90;;;;;;;;;;6331897;22;20010;-81
2023/05/12 04:55:27;;;;;;;1999.90;999.90;;;;;;;;;;6332073;22;20723;-81
2023/05/12 04:57:53;;;;;;;1999.90;999.90;;;;;;;;;;6332651;22;20015;-82
2023/05/12 05:00:19;;;;;;;1999.90;999.90;;;;;;;;;;6304139;22;20530;-82
2023/05/12 05:02:46;;;;;;;1999.90;999.90;;;;;;;;;;6332885;22;20086;-82
2023/05/12 05:05:12;;;;;;;1999.90;999.90;;;;;;;;;;6331110;22;20049;-81
2023/05/12 05:07:38;;;;;;;1999.90;999.90;;;;;;;;;;6332546;22;20011;-81
2023/05/12 05:10:04;;;;;;;1999.90;999.90;;;;;;;;;;6331793;22;20017;-81
2023/05/12 05:12:30;;;;;;;1999.90;999.90;;;;;;;;;;6304974;22;20044;-81
2023/05/12 05:14:56;;;;;;;1999.90;999.90;;;;;;;;;;6331605;22;20010;-82
2023/05/12 05:17:22;;;;;;;1999.90;999.90;;;;;;;;;;6332359;22;20007;-81
2023/05/12 05:19:48;;;;;;;1999.90;999.90;;;;;;;;;;6332308;22;20010;-81
2023/05/12 05:22:15;;;;;;;1999.90;999.90;;;;;;;;;;6331884;22;20340;-81
2023/05/12 05:24:41;;;;;;;1999.90;999.90;;;;;;;;;;6332784;22;20015;-81
2023/05/12 05:27:07;;;;;;;1999.90;999.90;;;;;;;;;;6331153;22;20009;-81
2023/05/12 05:29:33;;;;;;;1999.90;999.90;;;;;;;;;;6331900;22;20060;-81
2023/05/12 05:31:59;;;;;;;1999.90;999.90;;;;;;;;;;6331776;22;20019;-81
2023/05/12 05:34:25;;;;;;;1999.90;999.90;;;;;;;;;;6332171;22;20030;-81
2023/05/12 05:36:51;;;;;;;1999.90;999.90;;;;;;;;;;6304494;22;20367;-81
2023/05/12 05:39:17;;;;;;;1999.90;999.90;;;;;;;;;;6303789;22;20014;-81
2023/05/12 05:41:43;;;;;;;1999.90;999.90;;;;;;;;;;6332666;22;20015;-81
2023/05/12 05:44:09;;;;;;;1999.90;999.90;;;;;;;;;;6331195;22;20067;-81
2023/05/12 05:46:35;;;;;;;1999.90;999.90;;;;;;;;;;6332203;22;20064;-81
2023/05/12 05:49:01;;;;;;;1999.90;999.90;;;;;;;;;;6330594;22;20015;-81
2023/05/12 05:51:27;;;;;;;1999.90;999.90;;;;;;;;;;6332367;22;20006;-81
2023/05/12 05:53:53;;;;;;;1999.90;999.90;;;;;;;;;;6332391;22;20011;-81
2023/05/12 05:56:19;;;;;;;1999.90;999.90;;;;;;;;;;6332401;22;20014;-82
2023/05/12 05:58:45;;;;;;;1999.90;999.90;;;;;;;;;;6332211;22;20015;-81
2023/05/12 06:01:12;;;;;;;1999.90;999.90;;;;;;;;;;6331494;22;20031;-80
2023/05/12 06:03:38;;;;;;;1999.90;999.90;;;;;;;;;;6331938;22;20011;-81
2023/05/12 06:06:04;;;;;;;1999.90;999.90;;;;;;;;;;6331750;22;20022;-81
2023/05/12 06:08:30;;;;;;;1999.90;999.90;;;;;;;;;;6332351;22;20021;-81
2023/05/12 06:10:56;;;;;;;1999.90;999.90;;;;;;;;;;6330150;22;20018;-81
2023/05/12 06:13:22;;;;;;;1999.90;999.90;;;;;;;;;;6332262;22;20015;-81
2023/05/12 06:15:48;;;;;;;1999.90;999.90;;;;;;;;;;6332604;22;20022;-81
2023/05/12 06:18:14;;;;;;;1999.90;999.90;;;;;;;;;;6331722;22;20053;-81
2023/05/12 06:20:40;;;;;;;1999.90;999.90;;;;;;;;;;6304941;22;20015;-80
2023/05/12 06:23:06;;;;;;;1999.90;999.90;;;;;;;;;;6331875;22;20361;-81
2023/05/12 06:25:32;;;;;;;1999.90;999.90;;;;;;;;;;6332214;22;20082;-81
2023/05/12 06:27:58;;;;;;;1999.90;999.90;;;;;;;;;;6304250;22;20019;-81
2023/05/12 06:30:24;;;;;;;1999.90;999.90;;;;;;;;;;6332662;22;20205;-81
2023/05/12 06:32:50;;;;;;;1999.90;999.90;;;;;;;;;;6331438;22;20377;-81
2023/05/12 06:35:16;;;;;;;1999.90;999.90;;;;;;;;;;6331896;22;20073;-81
2023/05/12 06:37:48;;;;;;;1999.90;999.90;;;;;;;;;;6332392;22;20030;-81
2023/05/12 06:40:14;;;;;;;1999.90;999.90;;;;;;;;;;6332907;22;20417;-81
2023/05/12 06:42:40;;;;;;;1999.90;999.90;;;;;;;;;;6333766;22;20022;-81
2023/05/12 06:45:06;;;;;;;1999.90;999.90;;;;;;;;;;6333374;22;20007;-81
2023/05/12 06:47:32;;;;;;;1999.90;999.90;;;;;;;;;;6333396;22;20023;-81
2023/05/12 06:49:58;;;;;;;1999.90;999.90;;;;;;;;;;6333608;22;20094;-81
2023/05/12 06:52:24;;;;;;;1999.90;999.90;;;;;;;;;;6305795;22;20049;-81
2023/05/12 06:54:50;;;;;;;1999.90;999.90;;;;;;;;;;6333536;22;20015;-81
2023/05/12 06:57:16;;;;;;;1999.90;999.90;;;;;;;;;;6333486;22;20011;-81
2023/05/12 06:59:42;;;;;;;1999.90;999.90;;;;;;;;;;6334276;22;20490;-81
2023/05/12 07:02:08;;;;;;;1999.90;999.90;;;;;;;;;;6333217;22;20010;-81
2023/05/12 07:04:35;;;;;;;1999.90;999.90;;;;;;;;;;6305944;22;20068;-81
2023/05/12 07:07:01;;;;;;;1999.90;999.90;;;;;;;;;;6305837;22;20045;-81
2023/05/12 07:09:26;;;;;;;1999.90;999.90;;;;;;;;;;6333428;22;20010;-81
2023/05/12 07:11:53;;;;;;;1999.90;999.90;;;;;;;;;;6333909;22;20483;-82
2023/05/12 07:14:19;;;;;;;1999.90;999.90;;;;;;;;;;6333371;22;20490;-81
2023/05/12 07:16:45;;;;;;;1999.90;999.90;;;;;;;;;;6333649;22;20032;-81
2023/05/12 07:19:11;;;;;;;1999.90;999.90;;;;;;;;;;6305318;22;20082;-81
2023/05/12 07:21:37;;;;;;;1999.90;999.90;;;;;;;;;;6333770;22;20034;-82
2023/05/12 07:24:05;;;;;;;1999.90;999.90;;;;;;;;;;6332225;22;20082;-81
2023/05/12 07:26:31;;;;;;;1999.90;999.90;;;;;;;;;;6334057;22;20373;-82
2023/05/12 07:28:59;;;;;;;1999.90;999.90;;;;;;;;;;6332808;22;20017;-81
2023/05/12 07:31:25;;;;;;;1999.90;999.90;;;;;;;;;;6333593;22;20029;-82
2023/05/12 07:33:51;;;;;;;1999.90;999.90;;;;;;;;;;6332788;22;20019;-81
2023/05/12 07:36:17;;;;;;;1999.90;999.90;;;;;;;;;;6332437;22;20056;-81
2023/05/12 07:38:43;;;;;;;1999.90;999.90;;;;;;;;;;6333072;22;20015;-82
2023/05/12 07:41:09;;;;;;;1999.90;999.90;;;;;;;;;;6332708;22;20022;-82
2023/05/12 07:43:35;;;;;;;1999.90;999.90;;;;;;;;;;6333652;22;20318;-82
2023/05/12 07:46:01;;;;;;;1999.90;999.90;;;;;;;;;;6304175;22;20015;-81
2023/05/12 07:48:27;;;;;;;1999.90;999.90;;;;;;;;;;6305453;22;20086;-81
2023/05/12 07:50:53;;;;;;;1999.90;999.90;;;;;;;;;;6305244;22;20145;-82
2023/05/12 07:53:19;;;;;;;1999.90;999.90;;;;;;;;;;6332930;22;20010;-81
2023/05/12 07:55:45;;;;;;;1999.90;999.90;;;;;;;;;;6333239;22;20076;-81
2023/05/12 07:58:12;;;;;;;1999.90;999.90;;;;;;;;;;6332320;22;20010;-82
2023/05/12 08:00:38;;;;;;;1999.90;999.90;;;;;;;;;;6333045;22;20015;-81
2023/05/12 08:03:06;;;;;;;1999.90;999.90;;;;;;;;;;6278639;22;20023;-81
2023/05/12 08:05:32;;;;;;;1999.90;999.90;;;;;;;;;;6333452;22;20013;-81
2023/05/12 08:07:58;;;;;;;1999.90;999.90;;;;;;;;;;6330920;22;20015;-81
2023/05/12 08:10:28;;;;;;;1999.90;999.90;;;;;;;;;;6305355;22;20018;-82
2023/05/12 08:12:54;;;;;;;1999.90;999.90;;;;;;;;;;6332720;22;20015;-81
2023/05/12 08:15:20;;;;;;;1999.90;999.90;;;;;;;;;;6332972;22;20094;-81
2023/05/12 08:17:46;;;;;;;1999.90;999.90;;;;;;;;;;6332211;22;20091;-81
2023/05/12 08:20:12;;;;;;;1999.90;999.90;;;;;;;;;;6304552;22;20046;-81
2023/05/12 08:22:38;;;;;;;1999.90;999.90;;;;;;;;;;6331974;22;20421;-81
2023/05/12 08:25:05;;;;;;;1999.90;999.90;;;;;;;;;;6332160;22;20309;-82
2023/05/12 08:27:31;;;;;;;1999.90;999.90;;;;;;;;;;6304227;22;20057;-81
2023/05/12 08:29:57;;;;;;;1999.90;999.90;;;;;;;;;;6331741;22;20015;-81
2023/05/12 08:32:23;;;;;;;1999.90;999.90;;;;;;;;;;6332804;22;20038;-81
2023/05/12 08:34:49;;;;;;;1999.90;999.90;;;;;;;;;;6332861;22;20022;-82
2023/05/12 08:37:15;;;;;;;1999.90;999.90;;;;;;;;;;6330840;22;20015;-81
2023/05/12 08:39:41;;;;;;;1999.90;999.90;;;;;;;;;;6332127;22;20017;-81
2023/05/12 08:42:13;;;;;;;1999.90;999.90;;;;;;;;;;6332024;22;20011;-82
2023/05/12 08:44:40;;;;;;;1999.90;999.90;;;;;;;;;;6304788;22;20014;-81
2023/05/12 08:47:06;;;;;;;1999.90;999.90;;;;;;;;;;6303161;22;20018;-81
2023/05/12 08:49:34;;;;;;;1999.90;999.90;;;;;;;;;;6305275;22;20050;-82
2023/05/12 08:52:01;;;;;;;1999.90;999.90;;;;;;;;;;6331727;22;20073;-81
2023/05/12 08:54:28;;;;;;;1999.90;999.90;;;;;;;;;;6333128;22;20021;-81
2023/05/12 08:56:54;;;;;;;1999.90;999.90;;;;;;;;;;6331832;22;20014;-81
2023/05/12 08:59:22;;;;;;;1999.90;999.90;;;;;;;;;;6333445;22;20084;-81
2023/05/12 09:01:49;;;;;;;1999.90;999.90;;;;;;;;;;6332498;22;20072;-81
2023/05/12 09:04:16;;;;;;;1999.90;999.90;;;;;;;;;;6331857;22;20366;-82
2023/05/12 09:06:42;;;;;;;1999.90;999.90;;;;;;;;;;6331401;22;20014;-81
2023/05/12 09:09:09;;;;;;;1999.90;999.90;;;;;;;;;;6331441;22;20044;-82
2023/05/12 09:11:34;;;;;;;1999.90;999.90;;;;;;;;;;6304793;22;20019;-82
2023/05/12 09:14:06;;;;;;;1999.90;999.90;;;;;;;;;;6331648;22;20011;-82
2023/05/12 09:16:42;;;;;;;1999.90;999.90;;;;;;;;;;6332165;22;20350;-81
2023/05/12 09:19:08;;;;;;;1999.90;999.90;;;;;;;;;;6332174;22;20014;-82
2023/05/12 09:21:35;;;;;;;1999.90;999.90;;;;;;;;;;6332526;22;20015;-81
2023/05/12 09:24:04;;;;;;;1999.90;999.90;;;;;;;;;;6331325;22;20021;-82
2023/05/12 09:26:31;;;;;;;1999.90;999.90;;;;;;;;;;6332208;22;20325;-81
2023/05/12 09:29:07;;;;;;;1999.90;999.90;;;;;;;;;;6331584;22;20141;-82
2023/05/12 09:31:34;;;;;;;1999.90;999.90;;;;;;;;;;6303789;22;20374;-81
2023/05/12 09:34:01;;;;;;;1999.90;999.90;;;;;;;;;;6330825;22;20142;-81
2023/05/12 09:36:27;;;;;;;1999.90;999.90;;;;;;;;;;6332480;22;20015;-81
2023/05/12 09:38:59;;;;;;;1999.90;999.90;;;;;;;;;;6331962;22;20085;-82
2023/05/12 09:41:25;;;;;;;1999.90;999.90;;;;;;;;;;6304355;22;20475;-81
2023/05/12 09:43:55;;;;;;;1999.90;999.90;;;;;;;;;;6332297;22;20050;-81
2023/05/12 09:46:21;;;;;;;1999.90;999.90;;;;;;;;;;6331657;22;20018;-82
2023/05/12 09:48:47;;;;;;;1999.90;999.90;;;;;;;;;;6330430;22;20015;-81
2023/05/12 09:51:17;;;;;;;1999.90;999.90;;;;;;;;;;6331878;22;20014;-81
2023/05/12 09:53:43;;;;;;;1999.90;999.90;;;;;;;;;;6332255;22;20336;-82
2023/05/12 09:56:13;;;;;;;1999.90;999.90;;;;;;;;;;6331605;22;20036;-82
2023/05/12 09:58:46;;;;;;;1999.90;999.90;;;;;;;;;;6331739;22;20089;-81
2023/05/12 10:01:13;;;;;;;1999.90;999.90;;;;;;;;;;6331132;22;20097;-81
2023/05/12 10:03:42;;;;;;;1999.90;999.90;;;;;;;;;;6303529;22;20042;-81
2023/05/12 10:06:11;;;;;;;1999.90;999.90;;;;;;;;;;6331479;22;20297;-81
2023/05/12 10:08:39;;;;;;;1999.90;999.90;;;;;;;;;;6332056;22;20011;-82
2023/05/12 10:11:06;;;;;;;1999.90;999.90;;;;;;;;;;6303772;22;20082;-82
2023/05/12 10:13:33;;;;;;;1999.90;999.90;;;;;;;;;;6332616;22;20014;-81
2023/05/12 10:16:00;;;;;;;1999.90;999.90;;;;;;;;;;6333122;22;20018;-81
2023/05/12 10:18:26;;;;;;;1999.90;999.90;;;;;;;;;;6306017;22;20082;-81
2023/05/12 10:20:53;;;;;;;1999.90;999.90;;;;;;;;;;6306715;22;20061;-82
2023/05/12 10:23:20;;;;;;;1999.90;999.90;;;;;;;;;;6280227;22;20019;-81
2023/05/12 10:25:47;;;;;;;1999.90;999.90;;;;;;;;;;6333752;22;20018;-83
2023/05/12 10:28:13;;;;;;;1999.90;999.90;;;;;;;;;;6332996;22;20014;-82
2023/05/12 10:30:39;;;;;;;1999.90;999.90;;;;;;;;;;6333558;22;20011;-82
2023/05/12 10:33:07;;;;;;;1999.90;999.90;;;;;;;;;;6332735;22;20089;-81
2023/05/12 10:35:34;;;;;;;1999.90;999.90;;;;;;;;;;6333948;22;20060;-81
2023/05/12 10:38:02;;;;;;;1999.90;999.90;;;;;;;;;;6333313;22;20076;-82
2023/05/12 10:40:28;;;;;;;1999.90;999.90;;;;;;;;;;6334139;22;20375;-81
2023/05/12 10:42:57;;;;;;;1999.90;999.90;;;;;;;;;;6332915;22;20087;-81
2023/05/12 10:45:23;;;;;;;1999.90;999.90;;;;;;;;;;6333492;22;20439;-81
2023/05/12 10:47:50;;;;;;;1999.90;999.90;;;;;;;;;;6332477;22;20019;-82
2023/05/12 10:50:28;;;;;;;1999.90;999.90;;;;;;;;;;6333095;22;20018;-82
2023/05/12 10:52:55;;;;;;;1999.90;999.90;;;;;;;;;;6332626;22;20091;-81
2023/05/12 10:55:34;;;;;;;1999.90;999.90;;;;;;;;;;6333550;22;20021;-81
2023/05/12 10:58:04;;;;;;;1999.90;999.90;;;;;;;;;;6332396;22;20038;-81
2023/05/12 11:00:30;;;;;;;1999.90;999.90;;;;;;;;;;6305263;22;20068;-81
2023/05/12 11:02:56;;;;;;;1999.90;999.90;;;;;;;;;;6331994;22;20015;-82
2023/05/12 11:05:33;;;;;;;1999.90;999.90;;;;;;;;;;6333282;22;20381;-82
2023/05/12 11:07:59;;;;;;;1999.90;999.90;;;;;;;;;;6332866;22;20045;-82
2023/05/12 11:10:28;;;;;;;1999.90;999.90;;;;;;;;;;6333592;22;20036;-81
2023/05/12 11:12:54;;;;;;;1999.90;999.90;;;;;;;;;;6332285;22;20013;-81
2023/05/12 11:15:21;;;;;;;1999.90;999.90;;;;;;;;;;6332578;22;20098;-81
2023/05/12 11:17:47;;;;;;;1999.90;999.90;;;;;;;;;;6333246;22;20007;-81
2023/05/12 11:20:22;;;;;;;1999.90;999.90;;;;;;;;;;6332683;22;20414;-81
2023/05/12 11:22:48;;;;;;;1999.90;999.90;;;;;;;;;;6333418;22;20049;-81
2023/05/12 11:25:14;;;;;;;1999.90;999.90;;;;;;;;;;6304110;22;20018;-81
2023/05/12 11:27:50;;;;;;;1999.90;999.90;;;;;;;;;;6332959;22;20347;-81
2023/05/12 11:30:16;;;;;;;1999.90;999.90;;;;;;;;;;6303370;22;20026;-80
2023/05/12 11:32:43;;;;;;;1999.90;999.90;;;;;;;;;;6331939;22;20344;-83
2023/05/12 11:35:16;;;;;;;1999.90;999.90;;;;;;;;;;6330523;22;20037;-81
2023/05/12 11:37:42;;;;;;;1999.90;999.90;;;;;;;;;;6330600;22;20132;-80
2023/05/12 11:40:13;;;;;;;1999.90;999.90;;;;;;;;;;6331213;22;20010;-80
2023/05/12 11:42:40;;;;;;;1999.90;999.90;;;;;;;;;;6331019;22;20048;-79
2023/05/12 11:45:06;;;;;;;1999.90;999.90;;;;;;;;;;6303254;22;20021;-82
2023/05/12 11:47:32;;;;;;;1999.90;999.90;;;;;;;;;;6304256;22;20023;-82
2023/05/12 11:49:59;;;;;;;1999.90;999.90;;;;;;;;;;6303642;22;20072;-79
2023/05/12 11:52:25;;;;;;;1999.90;999.90;;;;;;;;;;6332419;22;20021;-79
2023/05/12 11:54:59;;;;;;;1999.90;999.90;;;;;;;;;;6304146;22;20018;-77
2023/05/12 11:57:29;;;;;;;1999.90;999.90;;;;;;;;;;6304732;22;20439;-78
2023/05/12 12:00:01;;;;;;;1999.90;999.90;;;;;;;;;;6331485;22;20098;-77
2023/05/12 12:02:27;;;;;;;1999.90;999.90;;;;;;;;;;6332449;22;20011;-77
2023/05/12 12:04:53;;;;;;;1999.90;999.90;;;;;;;;;;6332778;22;20010;-77
2023/05/12 12:07:30;;;;;;;1999.90;999.90;;;;;;;;;;6305768;22;20052;-77
2023/05/12 12:09:56;;;;;;;1999.90;999.90;;;;;;;;;;6332049;22;20018;-78
2023/05/12 12:12:22;;;;;;;1999.90;999.90;;;;;;;;;;6304824;22;20022;-77
2023/05/12 12:14:48;;;;;;;1999.90;999.90;;;;;;;;;;6332783;22;20006;-77
2023/05/12 12:17:14;;;;;;;1999.90;999.90;;;;;;;;;;6303042;22;20085;-78
2023/05/12 12:19:40;;;;;;;1999.90;999.90;;;;;;;;;;6303606;22;20050;-82
2023/05/12 12:22:06;;;;;;;1999.90;999.90;;;;;;;;;;6330329;22;20022;-74
2023/05/12 12:24:32;;;;;;;1999.90;999.90;;;;;;;;;;6303874;22;20014;-75
2023/05/12 12:26:58;;;;;;;1999.90;999.90;;;;;;;;;;6304421;22;20362;-73
2023/05/12 12:29:27;;;;;;;1999.90;999.90;;;;;;;;;;6332772;22;20086;-74
2023/05/12 12:31:53;;;;;;;1999.90;999.90;;;;;;;;;;6331748;22;20060;-76
2023/05/12 12:34:19;;;;;;;1999.90;999.90;;;;;;;;;;6332893;22;20010;-75
2023/05/12 12:36:46;;;;;;;1999.90;999.90;;;;;;;;;;6328313;22;20025;-75
2023/05/12 12:39:13;;;;;;;1999.90;999.90;;;;;;;;;;6303532;22;20022;-76
2023/05/12 12:41:39;;;;;;;1999.90;999.90;;;;;;;;;;6277087;22;20026;-77
2023/05/12 12:44:05;;;;;;;1999.90;999.90;;;;;;;;;;6301109;22;20085;-76
2023/05/12 12:46:31;;;;;;;1999.90;999.90;;;;;;;;;;6303666;22;20349;-77
2023/05/12 12:48:57;;;;;;;1999.90;999.90;;;;;;;;;;6330949;22;20030;-78
2023/05/12 12:51:24;;;;;;;1999.90;999.90;;;;;;;;;;6331153;22;20007;-74
2023/05/12 12:53:50;;;;;;;1999.90;999.90;;;;;;;;;;6302055;22;20019;-77
2023/05/12 12:56:18;;;;;;;1999.90;999.90;;;;;;;;;;6331293;22;20042;-77
2023/05/12 12:58:44;;;;;;;1999.90;999.90;;;;;;;;;;6330503;22;20034;-77
2023/05/12 13:01:10;;;;;;;1999.90;999.90;;;;;;;;;;6301987;22;20018;-77
2023/05/12 13:03:36;;;;;;;1999.90;999.90;;;;;;;;;;6330303;22;20021;-76
2023/05/12 13:06:02;;;;;;;1999.90;999.90;;;;;;;;;;6330837;22;20014;-77
2023/05/12 13:08:28;;;;;;;1999.90;999.90;;;;;;;;;;6330178;22;20087;-77
2023/05/12 13:10:55;;;;;;;1999.90;999.90;;;;;;;;;;6331489;22;20046;-77
2023/05/12 13:13:21;;;;;;;1999.90;999.90;;;;;;;;;;6330453;22;20011;-77
2023/05/12 13:15:47;;;;;;;1999.90;999.90;;;;;;;;;;6330783;22;20015;-78
2023/05/12 13:18:13;;;;;;;1999.90;999.90;;;;;;;;;;6330630;22;20019;-80
2023/05/12 13:20:39;;;;;;;1999.90;999.90;;;;;;;;;;6330485;22;20018;-79
2023/05/12 13:23:05;;;;;;;1999.90;999.90;;;;;;;;;;6328842;22;20014;-80
2023/05/12 13:25:31;;;;;;;1999.90;999.90;;;;;;;;;;6301087;22;20021;-79
2023/05/12 13:27:57;;;;;;;1999.90;999.90;;;;;;;;;;6299598;22;20410;-78
2023/05/12 13:30:23;;;;;;;1999.90;999.90;;;;;;;;;;6330196;22;20018;-80
2023/05/12 13:32:50;;;;;;;1999.90;999.90;;;;;;;;;;6330234;22;20011;-78
2023/05/12 13:35:16;;;;;;;1999.90;999.90;;;;;;;;;;6330277;22;20007;-79
2023/05/12 13:37:42;;;;;;;1999.90;999.90;;;;;;;;;;6303843;22;20064;-78